createdAt,value
2023-03-01T00:02:59.871Z,-3.00
2023-03-01T00:08:02.411Z,-2.90
2023-03-01T00:13:06.255Z,-3.00
2023-03-01T00:18:09.829Z,-3.10
2023-03-01T00:23:12.493Z,-2.70
2023-03-01T00:28:15.287Z,-2.70
2023-03-01T00:33:17.926Z,-2.80
2023-03-01T00:38:20.463Z,-2.70
2023-03-01T00:43:23.172Z,-2.80
2023-03-01T00:48:25.645Z,-2.70
2023-03-01T00:53:28.159Z,-2.70
2023-03-01T00:58:31.201Z,-2.90
2023-03-01T01:03:33.979Z,-3.00
2023-03-01T01:08:36.570Z,-3.00
2023-03-01T01:13:40.456Z,-2.80
2023-03-01T01:18:43.638Z,-2.80
2023-03-01T01:23:47.156Z,-3.10
2023-03-01T01:28:50.095Z,-3.30
2023-03-01T01:33:53.594Z,-3.40
2023-03-01T01:38:56.474Z,-3.20
2023-03-01T01:44:17.086Z,-3.30
2023-03-01T01:49:38.002Z,-3.40
2023-03-01T01:54:58.557Z,-3.30
2023-03-01T02:00:04.429Z,-2.80
2023-03-01T02:05:33.563Z,-2.60
2023-03-01T02:10:36.529Z,-2.70
2023-03-01T02:15:41.437Z,-2.70
2023-03-01T02:20:58.977Z,-3.00
2023-03-01T02:26:29.403Z,-3.20
2023-03-01T02:31:44.272Z,-3.10
2023-03-01T02:36:54.393Z,-3.30
2023-03-01T02:42:00.014Z,-3.10
2023-03-01T02:47:05.179Z,-2.80
2023-03-01T02:52:41.165Z,-3.00
2023-03-01T02:57:51.758Z,-3.10
2023-03-01T03:02:57.870Z,-2.80
2023-03-01T03:08:03.026Z,-3.00
2023-03-01T03:13:12.878Z,-2.90
2023-03-01T03:18:17.686Z,-3.20
2023-03-01T03:23:27.101Z,-3.30
2023-03-01T03:28:29.902Z,-3.20
2023-03-01T03:33:32.597Z,-3.20
2023-03-01T03:38:35.042Z,-3.50
2023-03-01T03:43:39.919Z,-3.50
2023-03-01T03:48:45.146Z,-3.80
2023-03-01T03:53:47.708Z,-3.40
2023-03-01T03:58:50.348Z,-3.30
2023-03-01T04:03:55.559Z,-3.00
2023-03-01T04:09:00.024Z,-2.90
2023-03-01T04:14:02.584Z,-2.90
2023-03-01T04:19:07.443Z,-2.90
2023-03-01T04:24:10.658Z,-2.90
2023-03-01T04:29:13.470Z,-3.10
2023-03-01T04:34:16.018Z,-3.30
2023-03-01T04:39:18.572Z,-3.20
2023-03-01T04:44:21.091Z,-3.20
2023-03-01T04:49:23.686Z,-3.20
2023-03-01T04:54:26.178Z,-3.40
2023-03-01T04:59:28.980Z,-3.00
2023-03-01T05:04:32.137Z,-2.70
2023-03-01T05:09:34.844Z,-2.60
2023-03-01T05:14:37.405Z,-2.60
2023-03-01T05:19:39.917Z,-2.90
2023-03-01T05:24:42.562Z,-3.10
2023-03-01T05:29:47.357Z,-3.10
2023-03-01T05:34:49.794Z,-3.40
2023-03-01T05:39:53.177Z,-3.60
2023-03-01T05:44:55.758Z,-3.80
2023-03-01T05:49:58.369Z,-3.30
2023-03-01T05:55:00.939Z,-2.80
2023-03-01T06:00:04.373Z,-2.40
2023-03-01T06:05:15.166Z,-2.50
2023-03-01T06:10:19.473Z,-2.40
2023-03-01T06:15:22.748Z,-1.90
2023-03-01T06:20:27.759Z,-2.00
2023-03-01T06:25:30.470Z,-1.40
2023-03-01T06:30:33.124Z,-1.50
2023-03-01T06:35:36.126Z,-1.00
2023-03-01T06:40:38.751Z,-0.80
2023-03-01T06:45:41.263Z,-0.80
2023-03-01T06:50:43.818Z,-0.60
2023-03-01T06:55:46.417Z,3.10
2023-03-01T07:00:48.916Z,4.40
2023-03-01T07:05:53.470Z,2.10
2023-03-01T07:10:59.999Z,0.50
2023-03-01T07:16:02.656Z,1.30
2023-03-01T07:21:09.865Z,3.10
2023-03-01T07:26:12.341Z,2.20
2023-03-01T07:31:15.302Z,1.70
2023-03-01T07:36:17.850Z,1.20
2023-03-01T07:41:20.338Z,1.10
2023-03-01T07:46:23.184Z,1.30
2023-03-01T07:51:25.829Z,0.90
2023-03-01T07:56:28.378Z,1.10
2023-03-01T08:01:30.896Z,1.20
2023-03-01T08:06:35.567Z,1.40
2023-03-01T08:11:38.675Z,1.50
2023-03-01T08:16:41.376Z,2.00
2023-03-01T08:21:44.042Z,2.50
2023-03-01T08:26:46.685Z,3.90
2023-03-01T08:31:49.846Z,5.50
2023-03-01T08:36:53.287Z,6.50
2023-03-01T08:41:55.813Z,6.30
2023-03-01T08:46:58.662Z,7.80
2023-03-01T08:52:03.427Z,8.80
2023-03-01T08:57:06.210Z,7.50
2023-03-01T09:02:17.812Z,8.40
2023-03-01T09:07:20.449Z,9.30
2023-03-01T09:12:23.353Z,8.30
2023-03-01T09:17:25.793Z,9.80
2023-03-01T09:22:28.339Z,9.50
2023-03-01T09:27:30.876Z,9.60
2023-03-01T09:32:33.574Z,10.60
2023-03-01T09:37:38.572Z,9.80
2023-03-01T09:42:53.927Z,9.80
2023-03-01T09:47:57.232Z,9.40
2023-03-01T09:53:16.869Z,9.90
2023-03-01T09:58:42.671Z,9.60
2023-03-01T10:04:01.454Z,10.10
2023-03-01T10:09:18.096Z,9.90
2023-03-01T10:14:41.752Z,9.50
2023-03-01T10:19:46.773Z,8.70
2023-03-01T10:24:51.062Z,7.80
2023-03-01T10:29:59.885Z,7.30
2023-03-01T10:35:24.623Z,9.20
2023-03-01T10:40:27.221Z,9.50
2023-03-01T10:45:39.804Z,10.30
2023-03-01T10:50:48.053Z,10.60
2023-03-01T10:55:59.490Z,11.00
2023-03-01T11:01:05.309Z,10.80
2023-03-01T11:06:13.822Z,10.30
2023-03-01T11:11:32.559Z,10.90
2023-03-01T11:16:38.679Z,10.40
2023-03-01T11:21:48.882Z,10.00
2023-03-01T11:26:56.011Z,8.80
2023-03-01T11:32:02.262Z,9.00
2023-03-01T11:37:18.166Z,9.60
2023-03-01T11:42:29.111Z,8.80
2023-03-01T11:47:49.497Z,7.50
2023-03-01T11:53:19.286Z,6.90
2023-03-01T11:58:27.409Z,8.00
2023-03-01T12:04:08.324Z,8.70
2023-03-01T12:09:19.769Z,9.70
2023-03-01T12:14:33.991Z,10.10
2023-03-01T12:19:58.729Z,9.40
2023-03-01T12:25:15.717Z,9.40
2023-03-01T12:30:49.991Z,9.30
2023-03-01T12:36:27.633Z,8.70
2023-03-01T12:42:00.974Z,9.10
2023-03-01T12:47:26.250Z,8.60
2023-03-01T12:52:48.589Z,8.50
2023-03-01T12:58:26.245Z,8.30
2023-03-01T13:04:04.713Z,7.50
2023-03-01T13:09:22.349Z,7.40
2023-03-01T13:14:24.711Z,8.10
2023-03-01T13:19:37.215Z,8.90
2023-03-01T13:24:43.799Z,9.20
2023-03-01T13:29:54.876Z,9.10
2023-03-01T13:35:20.019Z,9.30
2023-03-01T13:40:23.619Z,9.00
2023-03-01T13:45:40.099Z,9.40
2023-03-01T13:51:15.414Z,9.30
2023-03-01T13:56:22.717Z,8.80
2023-03-01T14:01:30.340Z,8.80
2023-03-01T14:06:36.810Z,9.90
2023-03-01T14:11:54.225Z,10.50
2023-03-01T14:17:18.269Z,10.80
2023-03-01T14:22:41.767Z,9.60
2023-03-01T14:27:45.218Z,10.50
2023-03-01T14:33:02.759Z,9.90
2023-03-01T14:38:05.278Z,10.00
2023-03-01T14:43:21.138Z,10.50
2023-03-01T14:48:24.662Z,10.40
2023-03-01T14:53:32.661Z,10.00
2023-03-01T14:58:39.368Z,10.20
2023-03-01T15:03:45.061Z,9.80
2023-03-01T15:08:51.460Z,10.60
2023-03-01T15:13:54.802Z,11.00
2023-03-01T15:19:08.090Z,9.90
2023-03-01T15:24:20.607Z,10.20
2023-03-01T15:29:30.755Z,10.70
2023-03-01T15:34:38.391Z,11.00
2023-03-01T15:39:46.768Z,10.50
2023-03-01T15:44:49.287Z,10.00
2023-03-01T15:49:55.702Z,9.70
2023-03-01T15:55:02.321Z,9.20
2023-03-01T16:00:12.394Z,9.40
2023-03-01T16:05:20.629Z,9.50
2023-03-01T16:10:23.358Z,9.40
2023-03-01T16:15:33.245Z,9.30
2023-03-01T16:20:35.916Z,8.20
2023-03-01T16:25:38.818Z,7.20
2023-03-01T16:30:41.593Z,6.30
2023-03-01T16:35:45.094Z,5.50
2023-03-01T16:40:52.982Z,4.90
2023-03-01T16:45:55.636Z,4.40
2023-03-01T16:51:02.499Z,4.10
2023-03-01T16:56:08.636Z,3.90
2023-03-01T17:01:12.514Z,3.60
2023-03-01T17:06:19.045Z,3.40
2023-03-01T17:11:21.799Z,3.20
2023-03-01T17:16:24.377Z,3.00
2023-03-01T17:21:26.930Z,2.70
2023-03-01T17:26:29.515Z,2.50
2023-03-01T17:31:33.877Z,2.40
2023-03-01T17:36:44.745Z,2.20
2023-03-01T17:46:50.288Z,2.10
2023-03-01T17:51:52.851Z,2.00
2023-03-01T17:56:56.470Z,1.90
2023-03-01T18:02:01.483Z,1.90
2023-03-01T18:07:04.094Z,1.50
2023-03-01T18:12:07.117Z,1.30
2023-03-01T18:17:12.092Z,1.30
2023-03-01T18:22:15.617Z,1.20
2023-03-01T18:27:18.634Z,1.50
2023-03-01T18:32:22.095Z,1.70
2023-03-01T18:37:25.070Z,1.80
2023-03-01T18:42:27.557Z,1.60
2023-03-01T18:47:29.981Z,1.30
2023-03-01T18:57:35.262Z,0.80
2023-03-01T19:02:37.818Z,0.60
2023-03-01T19:07:40.451Z,0.50
2023-03-01T19:12:43.046Z,0.50
2023-03-01T19:17:45.857Z,0.40
2023-03-01T19:22:48.389Z,0.30
2023-03-01T19:27:50.944Z,0.40
2023-03-01T19:32:54.173Z,0.40
2023-03-01T19:37:56.793Z,0.20
2023-03-01T19:42:59.383Z,0.10
2023-03-01T19:48:01.993Z,0.00
2023-03-01T19:53:05.216Z,-0.20
2023-03-01T19:58:10.442Z,-0.10
2023-03-01T20:03:13.410Z,-0.10
2023-03-01T20:08:15.969Z,-0.10
2023-03-01T20:13:21.250Z,-0.30
2023-03-01T20:18:24.494Z,0.00
2023-03-01T20:23:27.586Z,-1.00
2023-03-01T20:28:30.357Z,-0.40
2023-03-01T20:33:33.003Z,-0.20
2023-03-01T20:38:38.475Z,-0.10
2023-03-01T20:43:42.721Z,-0.10
2023-03-01T20:48:45.329Z,-0.20
2023-03-01T20:53:47.914Z,0.00
2023-03-01T20:58:50.500Z,0.10
2023-03-01T21:03:53.270Z,-0.20
2023-03-01T21:08:56.810Z,-0.20
2023-03-01T21:13:59.471Z,-0.20
2023-03-01T21:19:04.608Z,-0.10
2023-03-01T21:24:10.317Z,-0.10
2023-03-01T21:29:13.002Z,-0.10
2023-03-01T21:34:15.529Z,-0.10
2023-03-01T21:39:18.139Z,-0.40
2023-03-01T21:44:20.723Z,-0.50
2023-03-01T21:49:23.611Z,-0.40
2023-03-01T21:54:26.348Z,-0.40
2023-03-01T21:59:29.109Z,-0.70
2023-03-01T22:04:31.737Z,-1.00
2023-03-01T22:09:36.319Z,-1.10
2023-03-01T22:14:38.778Z,-0.80
2023-03-01T22:19:41.310Z,-1.00
2023-03-01T22:24:43.973Z,-0.80
2023-03-01T22:29:46.511Z,-0.90
2023-03-01T22:34:49.033Z,-1.00
2023-03-01T22:39:52.121Z,-1.00
2023-03-01T22:44:54.681Z,-1.00
2023-03-01T22:49:57.146Z,-1.20
2023-03-01T22:54:59.948Z,-1.20
2023-03-01T23:00:06.328Z,-0.60
2023-03-01T23:05:09.955Z,-0.90
2023-03-01T23:10:13.406Z,-1.10
2023-03-01T23:15:15.926Z,-1.20
2023-03-01T23:20:18.498Z,-1.20
2023-03-01T23:25:21.074Z,-1.20
2023-03-01T23:30:23.624Z,-1.30
2023-03-01T23:35:29.383Z,-1.40
2023-03-01T23:40:32.009Z,-1.50
2023-03-01T23:45:42.947Z,-1.70
2023-03-01T23:50:45.545Z,-1.70
2023-03-01T23:55:53.438Z,-1.60
